Time;durP1;ratioP1;P1;durP2;ratioP2;P2;SDS_P1;SDS_P2;PMS_P1;PMS_P2;Temp;Humidity;BMP_temperature;BMP_pressure;BME280_temperature;BME280_humidity;BME280_pressure;Samples;Min_cycle;Max_cycle;Signal;HPM_P1;HPM_P2
2021/12/04 00:02:19;;;;;;;8.13;5.75;;;;;;;15.19;46.56;94621.81;10670714;27;20057;-93
2021/12/04 00:07:22;;;;;;;6.95;5.50;;;;;;;15.15;46.37;94607.66;10659318;27;20531;-86
2021/12/04 00:12:24;;;;;;;7.07;5.30;;;;;;;15.15;46.42;94573.09;10669394;27;20484;-92
2021/12/04 00:17:27;;;;;;;7.40;5.13;;;;;;;15.16;46.43;94566.88;10669212;27;20046;-87
2021/12/04 00:22:29;;;;;;;6.32;4.80;;;;;;;15.14;46.53;94561.88;10669365;27;20073;-93
2021/12/04 00:27:30;;;;;;;7.25;5.40;;;;;;;15.16;46.56;94536.50;10668894;27;20427;-91
2021/12/04 00:32:34;;;;;;;6.03;4.75;;;;;;;15.16;46.67;94541.69;10667445;27;20055;-83
2021/12/04 00:53:18;;;;;;;6.47;5.13;;;;;;;15.17;46.36;94503.47;10625271;27;20130;-91
2021/12/04 00:58:20;;;;;;;5.78;4.60;;;;;;;15.17;46.49;94491.28;10625072;27;20077;-86
2021/12/04 01:03:23;;;;;;;5.63;4.45;;;;;;;15.21;46.33;94504.63;10624897;27;20039;-82
2021/12/04 01:08:24;;;;;;;6.32;4.70;;;;;;;15.19;46.33;94504.03;10624406;27;20525;-91
2021/12/04 01:13:27;;;;;;;5.75;4.50;;;;;;;15.18;46.66;94518.84;10624656;27;20050;-91
2021/12/04 01:18:28;;;;;;;4.78;4.20;;;;;;;15.19;46.54;94514.44;10624503;27;20064;-91
2021/12/04 01:23:30;;;;;;;6.00;4.13;;;;;;;15.20;46.31;94511.63;10666547;27;20427;-91
2021/12/04 01:28:32;;;;;;;5.28;4.30;;;;;;;15.21;46.41;94517.63;10666162;27;20054;-91
2021/12/04 01:33:34;;;;;;;5.15;4.05;;;;;;;15.22;46.46;94516.59;10667453;27;20095;-91
2021/12/04 01:38:36;;;;;;;5.07;3.92;;;;;;;15.23;46.15;94518.97;10648237;27;20038;-90
2021/12/04 01:43:38;;;;;;;4.93;3.95;;;;;;;15.22;46.38;94504.41;10671620;27;20476;-93
2021/12/04 01:48:40;;;;;;;4.30;3.90;;;;;;;15.25;46.26;94469.34;10681694;27;20054;-91
2021/12/04 01:53:41;;;;;;;5.00;4.10;;;;;;;15.24;46.08;94452.97;10681428;27;20377;-84
2021/12/04 01:58:43;;;;;;;4.18;3.78;;;;;;;15.26;45.91;94437.16;10683820;27;20060;-93
2021/12/04 02:03:45;;;;;;;5.07;3.75;;;;;;;15.29;46.27;94415.91;10684287;27;20087;-91
2021/12/04 02:08:47;;;;;;;4.00;3.60;;;;;;;15.30;46.19;94408.91;10681412;27;20069;-93
2021/12/04 02:13:48;;;;;;;3.90;3.50;;;;;;;15.28;46.31;94403.91;10680843;27;20045;-89
2021/12/04 02:18:50;;;;;;;3.90;3.50;;;;;;;15.30;46.23;94401.09;10662977;27;20075;-89
2021/12/04 02:23:52;;;;;;;4.05;3.47;;;;;;;15.29;45.91;94387.31;10681000;27;20043;-90
2021/12/04 02:28:55;;;;;;;3.85;3.22;;;;;;;15.28;46.09;94401.31;10680773;27;20050;-86
2021/12/04 02:33:56;;;;;;;4.20;3.30;;;;;;;15.29;45.80;94409.91;10680184;27;20054;-91
2021/12/04 02:38:58;;;;;;;3.22;2.92;;;;;;;15.30;45.99;94398.50;10680541;27;20042;-87
2021/12/04 02:44:02;;;;;;;4.30;3.33;;;;;;;15.29;46.35;94392.50;10680411;27;20038;-90
2021/12/04 02:49:05;;;;;;;3.72;3.42;;;;;;;15.28;46.11;94390.91;10679694;27;20046;-89
2021/12/04 02:54:10;;;;;;;3.88;3.40;;;;;;;15.31;45.89;94395.66;10660102;27;20043;-90
2021/12/04 02:59:12;;;;;;;3.58;2.95;;;;;;;15.31;46.16;94397.50;10673175;27;20047;-93
2021/12/04 03:04:14;;;;;;;3.17;2.85;;;;;;;15.29;46.03;94371.72;10672942;27;20034;-87
2021/12/04 03:09:16;;;;;;;3.08;2.78;;;;;;;15.30;46.00;94369.91;10673269;27;20041;-93
2021/12/04 03:14:20;;;;;;;3.15;2.83;;;;;;;15.30;46.04;94369.91;10673178;27;20043;-90
2021/12/04 03:19:21;;;;;;;3.88;3.05;;;;;;;15.30;45.75;94360.28;10672429;27;20112;-92
2021/12/04 03:24:24;;;;;;;5.88;3.10;;;;;;;15.31;45.99;94361.09;10654812;27;20047;-91
2021/12/04 03:29:28;;;;;;;3.30;2.50;;;;;;;15.30;46.18;94357.69;10653877;27;20070;-93
2021/12/04 03:45:10;;;;;;;2.95;2.65;;;;;;;15.31;45.73;94333.28;10671609;27;20038;-91
2021/12/04 03:50:12;;;;;;;3.55;2.70;;;;;;;15.31;45.89;94306.50;10672344;27;20039;-88
2021/12/04 03:55:14;;;;;;;3.13;2.60;;;;;;;15.32;46.11;94292.47;10673455;27;20047;-93
2021/12/04 04:00:18;;;;;;;4.97;2.70;;;;;;;15.32;45.77;94266.47;10671416;27;20045;-86
2021/12/04 04:05:21;;;;;;;3.60;2.50;;;;;;;15.32;45.99;94256.88;10652481;27;20047;-90
2021/12/04 04:10:22;;;;;;;2.95;2.55;;;;;;;15.32;46.04;94248.28;10651979;27;20045;-92
2021/12/04 04:15:25;;;;;;;3.28;2.40;;;;;;;15.33;45.77;94250.63;10670007;27;20058;-92
2021/12/04 04:20:26;;;;;;;3.72;2.30;;;;;;;15.33;45.85;94249.84;10669749;27;20064;-84
2021/12/04 04:25:28;;;;;;;2.65;2.40;;;;;;;15.34;45.60;94243.66;10651211;27;20045;-88
2021/12/04 04:30:29;;;;;;;2.00;1.90;;;;;;;15.35;45.98;94233.03;10651100;27;20050;-91
2021/12/04 04:35:33;;;;;;;3.00;2.50;;;;;;;15.35;46.04;94234.81;10670010;27;20054;-87
2021/12/04 05:12:28;;;;;;;3.17;2.00;;;;;;;15.30;45.82;94191.31;10665883;27;20438;-83
2021/12/04 05:22:51;;;;;;;2.00;1.75;;;;;;;15.31;45.74;94185.09;10665779;27;20122;-88
2021/12/04 05:27:53;;;;;;;2.08;1.88;;;;;;;15.32;45.88;94172.88;10663752;27;20035;-84
2021/12/04 05:32:54;;;;;;;2.72;1.70;;;;;;;15.31;45.74;94153.13;10659701;27;20046;-85
2021/12/04 05:37:56;;;;;;;2.55;1.98;;;;;;;15.31;45.83;94156.50;10646393;27;20035;-84
2021/12/04 05:43:02;;;;;;;2.35;1.65;;;;;;;15.32;45.85;94158.09;10664403;27;20049;-87
2021/12/04 05:48:20;;;;;;;4.35;1.63;;;;;;;15.32;45.76;94142.50;10646158;27;20043;-87
2021/12/04 05:53:30;;;;;;;2.17;1.73;;;;;;;15.31;45.54;94140.13;10645288;27;20042;-87
2021/12/04 05:58:33;;;;;;;1.92;1.77;;;;;;;15.32;45.73;94133.88;10644511;27;20114;-85
2021/12/04 06:03:35;;;;;;;1.73;1.63;;;;;;;15.32;45.63;94131.28;10664202;27;20099;-79
2021/12/04 06:08:37;;;;;;;2.40;2.08;;;;;;;15.33;45.63;94125.06;10664182;27;20042;-86
2021/12/04 06:13:39;;;;;;;1.70;1.60;;;;;;;15.32;45.79;94126.91;10646053;27;20054;-86
2021/12/04 06:18:45;;;;;;;2.80;1.67;;;;;;;15.35;45.94;94112.63;10663973;27;20487;-84
2021/12/04 06:23:47;;;;;;;1.98;1.45;;;;;;;15.34;45.72;94111.06;10645334;27;20159;-88
2021/12/04 06:28:49;;;;;;;2.25;1.88;;;;;;;15.33;45.73;94110.25;10663603;27;20496;-84
2021/12/04 06:33:51;;;;;;;1.50;1.40;;;;;;;15.33;45.79;94107.66;10671466;27;20046;-87
2021/12/04 06:38:53;;;;;;;2.03;1.60;;;;;;;15.34;45.88;94108.47;10671387;27;20039;-84
2021/12/04 06:43:56;;;;;;;2.42;1.40;;;;;;;15.34;45.98;94109.25;10653559;27;20039;-87
2021/12/04 06:49:03;;;;;;;1.52;1.42;;;;;;;15.34;45.74;94114.44;10652885;27;20058;-84
2021/12/04 06:54:15;;;;;;;;;;;;;;;15.35;45.75;94110.03;10671529;27;20072;-85
2021/12/04 06:59:23;;;;;;;4.28;1.48;;;;;;;15.35;45.64;94099.63;10671382;27;19919;-87
2021/12/04 07:04:34;;;;;;;1.45;1.30;;;;;;;15.35;45.51;94099.63;10670231;27;20042;-86
2021/12/04 07:09:38;;;;;;;1.90;1.25;;;;;;;15.37;45.64;94103.56;10651985;27;20396;-84
2021/12/04 07:14:39;;;;;;;3.67;1.20;;;;;;;15.39;45.52;94095.53;10670980;27;20042;-85
2021/12/04 07:19:41;;;;;;;1.40;1.30;;;;;;;15.40;45.85;94086.72;10671185;27;20388;-87
2021/12/04 07:24:42;;;;;;;15.35;3.47;;;;;;;15.44;51.32;94080.03;10647905;27;20133;-86
2021/12/04 07:29:44;;;;;;;15.02;3.22;;;;;;;15.47;52.00;94073.56;10651462;27;20043;-86
2021/12/04 07:34:46;;;;;;;16.67;3.10;;;;;;;15.48;50.83;94051.72;10670811;27;20057;-88
2021/12/04 07:39:47;;;;;;;13.02;2.90;;;;;;;15.50;50.76;94047.09;10652353;27;20514;-86
2021/12/04 07:44:49;;;;;;;13.05;2.83;;;;;;;15.51;50.32;94054.66;10669980;27;20031;-88
2021/12/04 07:49:51;;;;;;;11.07;2.60;;;;;;;15.53;50.07;94047.41;10651820;27;20049;-86
2021/12/04 07:54:56;;;;;;;12.50;2.75;;;;;;;15.55;49.57;94058.34;10634832;27;20046;-83
2021/12/04 07:59:58;;;;;;;12.90;2.78;;;;;;;15.57;49.20;94055.50;10669608;27;20035;-85
2021/12/04 08:05:00;;;;;;;12.02;2.60;;;;;;;15.58;48.91;94044.88;10670681;27;20042;-84
2021/12/04 08:10:03;;;;;;;14.52;2.50;;;;;;;15.63;48.89;94051.97;10651669;27;20042;-85
2021/12/04 08:15:06;;;;;;;8.93;2.38;;;;;;;15.67;48.75;94055.69;10651445;27;20047;-84
2021/12/04 08:20:10;;;;;;;7.65;2.15;;;;;;;15.68;48.28;94051.25;10669809;27;20038;-87
2021/12/04 08:25:14;;;;;;;6.68;2.70;;;;;;;15.73;48.15;94051.31;10669318;27;20045;-86
2021/12/04 08:30:20;;;;;;;6.70;2.08;;;;;;;15.74;48.16;94040.69;10649721;27;20042;-83
2021/12/04 08:35:25;;;;;;;6.68;2.15;;;;;;;15.76;47.43;94036.09;10649986;27;20042;-84
2021/12/04 08:40:29;;;;;;;6.68;1.92;;;;;;;15.80;47.58;94035.59;10649168;27;20057;-84
2021/12/04 08:45:31;;;;;;;8.60;2.10;;;;;;;15.83;47.60;94037.69;10667965;27;20122;-82
2021/12/04 08:50:34;;;;;;;5.80;1.90;;;;;;;15.86;47.26;94019.81;10648910;27;20095;-81
2021/12/04 08:55:38;;;;;;;4.75;1.80;;;;;;;15.89;46.76;94021.13;10666713;27;20050;-85
2021/12/04 09:00:51;;;;;;;8.95;2.00;;;;;;;15.90;47.08;94023.50;10667993;27;20043;-83
2021/12/04 09:05:54;;;;;;;6.80;2.20;;;;;;;15.93;46.75;94024.84;10651631;27;20556;-84
2021/12/04 09:11:00;;;;;;;4.47;1.88;;;;;;;15.95;46.81;94014.97;10648868;27;20046;-83
2021/12/04 09:16:02;;;;;;;4.68;1.77;;;;;;;15.98;46.70;94011.13;10648751;27;20053;-84
2021/12/04 09:21:05;;;;;;;6.15;1.98;;;;;;;16.01;46.42;94005.44;10648133;27;20050;-84
2021/12/04 09:26:13;;;;;;;4.55;1.80;;;;;;;16.04;46.40;94000.53;10666463;27;20050;-83
2021/12/04 09:37:02;;;;;;;4.90;1.88;;;;;;;16.07;46.15;93994.84;10609924;27;20050;-82
2021/12/04 10:35:12;;;;;;;4.90;1.92;;;;;;;16.44;45.05;93928.34;10673529;27;20128;-80
2021/12/04 10:40:14;;;;;;;3.15;1.55;;;;;;;16.50;44.72;93916.94;10673248;27;20565;-81
2021/12/04 10:45:16;;;;;;;4.20;1.90;;;;;;;16.55;44.78;93909.16;10654472;27;20130;-81
2021/12/04 10:50:41;;;;;;;5.45;1.80;;;;;;;16.57;44.49;93893.31;10654338;27;20039;-84
2021/12/04 10:56:11;;;;;;;3.60;1.95;;;;;;;16.59;44.54;93893.84;10673236;27;20055;-80
2021/12/04 11:38:39;;;;;;;2.95;2.10;;;;;;;16.67;44.08;93836.88;10585184;28;20058;-84
2021/12/04 11:43:52;;;;;;;6.07;1.80;;;;;;;16.67;44.25;93831.66;10584853;27;20035;-83
2021/12/04 11:48:59;;;;;;;3.45;2.20;;;;;;;16.70;44.14;93827.75;10583198;28;20043;-83
2021/12/04 11:54:11;;;;;;;4.72;1.92;;;;;;;16.67;44.12;93826.44;10583174;28;20050;-83
2021/12/04 11:59:12;;;;;;;2.88;2.17;;;;;;;16.64;44.24;93824.34;10584181;28;20055;-82
2021/12/04 12:04:14;;;;;;;4.85;2.00;;;;;;;16.65;44.22;93818.06;10584133;28;20503;-83
2021/12/04 12:09:19;;;;;;;2.60;2.08;;;;;;;16.63;44.19;93817.56;10583530;28;20046;-83
2021/12/04 12:14:35;;;;;;;3.78;2.10;;;;;;;16.64;44.17;93821.75;10565562;28;20143;-81
2021/12/04 12:19:41;;;;;;;3.30;2.17;;;;;;;16.66;44.23;93808.47;10582487;28;20047;-78
2021/12/04 12:41:20;;;;;;;2.63;2.42;;;;;;;16.72;43.89;93776.22;10667818;27;20035;-81
2021/12/04 12:46:51;;;;;;;2.95;2.20;;;;;;;16.76;43.85;93774.66;10668224;27;20046;-81
2021/12/04 12:52:12;;;;;;;5.90;2.47;;;;;;;16.80;43.71;93761.94;10667394;27;20030;-82
2021/12/04 12:57:24;;;;;;;3.33;2.22;;;;;;;16.76;43.80;93753.81;10667218;27;20046;-82
2021/12/04 13:13:31;;;;;;;3.17;2.40;;;;;;;16.71;43.90;93743.38;10648125;27;20054;-82
2021/12/04 13:18:36;;;;;;;3.72;2.90;;;;;;;16.68;43.96;93736.81;10666776;27;20035;-82
2021/12/04 13:23:49;;;;;;;3.05;2.55;;;;;;;16.64;44.18;93741.00;10666434;27;20511;-81
2021/12/04 13:29:01;;;;;;;3.88;2.53;;;;;;;16.63;43.97;93739.41;10665852;27;20051;-82
2021/12/04 13:34:10;;;;;;;3.13;2.80;;;;;;;16.62;44.05;93732.66;10665848;27;20134;-82
2021/12/04 13:39:22;;;;;;;3.95;2.90;;;;;;;16.60;44.02;93734.69;10665251;27;20042;-83
2021/12/04 13:44:28;;;;;;;4.03;2.58;;;;;;;16.59;43.90;93734.94;10665911;27;20396;-83
2021/12/04 13:49:39;;;;;;;3.00;2.70;;;;;;;16.60;44.09;93726.88;10665547;27;20042;-83
2021/12/04 13:54:52;;;;;;;5.07;2.47;;;;;;;16.58;44.12;93715.94;10647051;27;20099;-83
2021/12/04 14:00:01;;;;;;;2.92;2.42;;;;;;;16.56;44.14;93712.81;10665325;27;20042;-81
2021/12/04 14:05:09;;;;;;;3.65;2.60;;;;;;;16.52;44.28;93714.34;10665262;27;20504;-82
2021/12/04 14:10:40;;;;;;;2.67;2.47;;;;;;;16.50;44.24;93713.81;10664933;27;20047;-82
2021/12/04 14:15:47;;;;;;;4.25;2.83;;;;;;;16.46;44.33;93710.94;10646844;27;20543;-82
2021/12/04 14:20:52;;;;;;;4.05;2.78;;;;;;;16.45;44.28;93719.00;10664950;27;20178;-82
2021/12/04 14:25:56;;;;;;;3.92;2.92;;;;;;;16.42;44.50;93733.28;10664850;27;20502;-82
2021/12/04 14:30:58;;;;;;;3.70;2.80;;;;;;;16.41;44.29;93741.34;10645944;27;20058;-80
2021/12/04 14:36:00;;;;;;;4.30;2.88;;;;;;;16.38;44.59;93737.41;10629166;27;20061;-82
2021/12/04 14:41:07;;;;;;;2.88;2.55;;;;;;;16.37;44.54;93737.66;10646114;27;20377;-82
2021/12/04 14:46:15;;;;;;;3.03;2.72;;;;;;;16.35;44.53;93739.75;10664884;27;20084;-81
2021/12/04 14:51:20;;;;;;;3.88;2.80;;;;;;;16.32;44.78;93738.41;10666091;27;20034;-81
2021/12/04 14:56:24;;;;;;;3.67;2.60;;;;;;;16.30;44.71;93737.88;10672048;27;20073;-81
2021/12/04 15:01:33;;;;;;;3.90;3.22;;;;;;;16.28;44.74;93735.53;10636492;27;20042;-81
2021/12/04 15:06:39;;;;;;;5.85;3.03;;;;;;;16.25;45.02;93735.25;10671758;27;20498;-82
2021/12/04 15:11:47;;;;;;;3.88;2.83;;;;;;;16.23;44.72;93751.13;10671281;27;20039;-82
2021/12/04 15:16:53;;;;;;;3.65;2.80;;;;;;;16.22;45.02;93748.75;10671356;27;20381;-81
2021/12/04 15:21:59;;;;;;;4.28;3.10;;;;;;;16.20;45.01;93745.63;10653092;27;20039;-81
2021/12/04 15:27:04;;;;;;;3.63;2.72;;;;;;;16.18;44.90;93748.47;10652498;27;20422;-82
2021/12/04 15:32:14;;;;;;;3.95;2.60;;;;;;;16.17;44.97;93741.69;10670558;27;20445;-82
2021/12/04 15:37:37;;;;;;;2.83;2.50;;;;;;;16.14;45.04;93742.97;10671052;27;20095;-81
2021/12/04 15:42:50;;;;;;;3.50;2.60;;;;;;;16.14;45.12;93744.78;10670714;27;20484;-81
2021/12/04 15:48:23;;;;;;;3.40;2.83;;;;;;;16.13;45.22;93753.66;10670964;27;20049;-82
2021/12/04 15:53:24;;;;;;;4.50;2.65;;;;;;;16.11;45.17;93756.50;10651583;27;20046;-82
2021/12/04 15:58:33;;;;;;;3.67;2.70;;;;;;;16.09;45.20;93766.34;10670407;27;20137;-82
2021/12/04 16:03:40;;;;;;;3.70;2.70;;;;;;;16.08;44.98;93762.19;10669347;27;20042;-81
2021/12/04 16:08:42;;;;;;;5.07;2.90;;;;;;;16.08;45.20;93761.41;10669326;27;20446;-83
2021/12/04 16:13:53;;;;;;;3.22;2.80;;;;;;;16.07;45.03;93765.81;10669176;27;20047;-82
2021/12/04 16:18:57;;;;;;;3.85;2.80;;;;;;;16.05;45.09;93769.69;10669054;27;20034;-81
2021/12/04 16:23:58;;;;;;;3.13;2.55;;;;;;;16.04;45.24;93763.72;10668918;27;20058;-82
2021/12/04 16:29:04;;;;;;;2.85;2.58;;;;;;;16.03;45.06;93782.19;10649965;27;20077;-82
2021/12/04 16:35:09;;;;;;;5.25;2.58;;;;;;;16.02;45.25;93789.22;10668487;27;20043;-83
2021/12/04 16:39:27;;;;;;;4.85;3.00;;;;;;;16.02;45.10;93783.19;10668448;27;20075;-80
2021/12/04 16:44:29;;;;;;;3.38;2.55;;;;;;;16.00;45.31;93791.25;10668531;27;20046;-81
2021/12/04 16:49:33;;;;;;;2.55;2.30;;;;;;;16.00;45.23;93783.44;10667649;27;20091;-82
2021/12/04 16:55:05;;;;;;;3.00;2.67;;;;;;;15.99;45.42;93797.50;10667552;27;20035;-80
2021/12/04 17:00:11;;;;;;;3.35;2.65;;;;;;;15.99;45.17;93804.50;10667379;27;20038;-81
2021/12/04 17:05:14;;;;;;;3.17;2.85;;;;;;;15.98;45.32;93789.94;10667153;27;20130;-80
2021/12/04 17:10:15;;;;;;;3.17;2.78;;;;;;;15.97;45.19;93804.75;10666794;27;20042;-79
2021/12/04 17:15:17;;;;;;;3.47;2.63;;;;;;;15.96;45.27;93798.78;10665712;27;20046;-81
2021/12/04 17:20:21;;;;;;;4.03;2.55;;;;;;;15.97;45.17;93791.75;10666110;27;20038;-81
2021/12/04 17:25:23;;;;;;;4.65;2.80;;;;;;;15.95;45.46;93783.41;10666514;27;20045;-81
2021/12/04 17:30:25;;;;;;;4.82;2.72;;;;;;;15.94;45.36;93790.44;10665778;27;20055;-82
2021/12/04 17:35:26;;;;;;;3.28;2.72;;;;;;;15.94;45.58;93800.06;10630468;27;20512;-81
2021/12/04 17:40:28;;;;;;;4.70;2.72;;;;;;;15.95;45.52;93806.81;10666005;27;20042;-81
2021/12/04 17:45:31;;;;;;;2.95;2.50;;;;;;;15.94;45.30;93815.69;10665755;27;20038;-83
2021/12/04 17:50:43;;;;;;;6.60;2.75;;;;;;;15.96;46.99;93822.19;10646059;27;20192;-76
2021/12/04 17:55:44;;;;;;;8.82;2.58;;;;;;;15.97;48.17;93796.94;10665197;27;20141;-78
2021/12/04 18:00:52;;;;;;;9.43;2.60;;;;;;;15.98;47.51;93789.94;10665527;27;20043;-81
2021/12/04 18:06:01;;;;;;;11.75;2.90;;;;;;;15.96;47.38;93798.78;10665810;27;20107;-80
2021/12/04 18:11:02;;;;;;;12.13;3.10;;;;;;;15.96;47.71;93803.97;10664628;27;20042;-80
2021/12/04 18:16:12;;;;;;;9.55;2.97;;;;;;;16.00;51.75;93803.47;10665550;27;20050;-91
2021/12/04 18:21:15;;;;;;;4.35;2.75;;;;;;;15.99;49.53;93802.72;10639686;27;20066;-86
2021/12/04 18:26:17;;;;;;;7.85;2.97;;;;;;;15.99;48.50;93792.31;10646908;27;20051;-84
2021/12/04 18:31:21;;;;;;;6.07;2.60;;;;;;;16.00;48.45;93788.66;10672838;27;20399;-87
2021/12/04 18:36:23;;;;;;;9.50;2.63;;;;;;;16.00;48.20;93798.28;10672855;27;20138;-86
2021/12/04 18:41:26;;;;;;;6.63;2.65;;;;;;;15.99;48.03;93794.09;10672703;27;20095;-85
2021/12/04 18:46:31;;;;;;;4.90;2.67;;;;;;;16.01;47.92;93790.22;10672794;27;20034;-86
2021/12/04 18:51:34;;;;;;;5.97;2.40;;;;;;;15.99;47.64;93787.09;10654063;27;20046;-77
2021/12/04 18:56:36;;;;;;;2.75;2.10;;;;;;;15.99;47.88;93784.50;10672232;27;20051;-82
2021/12/04 19:01:38;;;;;;;2.45;2.00;;;;;;;16.00;47.54;93782.66;10671976;27;20041;-88
2021/12/04 19:06:41;;;;;;;6.53;2.33;;;;;;;16.03;47.76;93766.56;10674217;27;20038;-80
2021/12/04 19:11:45;;;;;;;5.20;2.10;;;;;;;16.04;48.17;93742.91;10653255;27;20053;-73
2021/12/04 19:16:48;;;;;;;14.77;2.47;;;;;;;16.05;47.85;93809.53;10671516;27;20062;-88
2021/12/04 19:21:50;;;;;;;6.28;2.15;;;;;;;16.05;48.07;93801.72;10649907;27;20087;-89
2021/12/04 19:26:52;;;;;;;9.57;2.50;;;;;;;16.06;47.79;93800.69;10671182;27;20034;-87
2021/12/04 19:32:02;;;;;;;4.70;2.10;;;;;;;16.05;47.54;93804.31;10651787;27;20046;-87
2021/12/04 19:58:44;;;;;;;5.03;2.10;;;;;;;15.99;47.56;93802.72;10630960;27;20039;-83
2021/12/04 20:04:04;;;;;;;2.25;1.83;;;;;;;15.98;47.19;93826.38;10640804;27;21052;-88
2021/12/04 20:14:28;;;;;;;2.95;2.05;;;;;;;15.98;47.27;93842.75;10675968;27;20046;-84
2021/12/04 20:19:30;;;;;;;4.50;2.00;;;;;;;15.97;47.27;93848.97;10670417;27;20461;-85
2021/12/04 20:24:39;;;;;;;3.92;2.25;;;;;;;15.96;47.21;93843.00;10669170;27;20042;-87
2021/12/04 20:29:59;;;;;;;2.60;1.90;;;;;;;15.96;47.11;93856.00;10668288;27;20137;-87
2021/12/04 21:07:00;;;;;;;4.78;2.30;;;;;;;15.89;47.06;93904.88;10667278;27;20480;-87
2021/12/04 21:39:00;;;;;;;2.95;2.15;;;;;;;15.87;46.91;93912.09;10667000;27;20047;-85
2021/12/04 21:49:20;;;;;;;3.53;2.20;;;;;;;15.87;46.67;93913.94;10666036;27;20041;-87
2021/12/04 21:49:43;;;;;;;3.08;2.35;;;;;;;15.88;46.76;93929.31;10665650;27;20099;-81
2021/12/04 21:54:49;;;;;;;3.88;2.42;;;;;;;15.88;46.95;93924.09;10647165;27;20050;-84
2021/12/04 22:10:42;;;;;;;2.55;2.10;;;;;;;15.89;46.87;93953.50;10673942;27;20073;-83
2021/12/04 22:16:12;;;;;;;3.08;2.35;;;;;;;15.87;46.69;93958.94;10674224;27;20046;-87
2021/12/04 22:58:30;;;;;;;2.70;2.40;;;;;;;15.85;46.90;94065.06;10672384;27;20050;-82
2021/12/04 23:04:07;;;;;;;2.83;2.45;;;;;;;15.84;46.78;94067.91;10672271;27;20054;-80
2021/12/04 23:14:57;;;;;;;2.90;2.10;;;;;;;15.83;46.59;94094.94;10670461;27;20043;-87
2021/12/04 23:36:19;;;;;;;2.88;2.05;;;;;;;15.80;46.76;94161.25;10670702;27;20472;-87
